createdAt,value
2019-05-17T00:01:27.028Z,25.13
2019-05-17T00:05:31.128Z,29.77
2019-05-17T00:09:37.399Z,25.60
2019-05-17T00:13:41.308Z,27.93
2019-05-17T00:17:46.981Z,27.00
2019-05-17T00:21:51.344Z,28.93
2019-05-17T00:25:56.403Z,26.37
2019-05-17T00:30:00.703Z,33.30
2019-05-17T00:34:07.131Z,29.73
2019-05-17T00:38:10.843Z,29.50
2019-05-17T00:42:16.999Z,33.40
2019-05-17T00:46:20.995Z,31.37
2019-05-17T00:50:27.333Z,26.87
2019-05-17T00:54:31.068Z,27.50
2019-05-17T00:58:37.048Z,32.13
2019-05-17T01:02:41.164Z,31.20
2019-05-17T01:06:46.902Z,40.90
2019-05-17T01:10:51.607Z,30.03
2019-05-17T01:14:58.123Z,32.83
2019-05-17T01:19:01.791Z,30.70
2019-05-17T01:23:07.599Z,30.27
2019-05-17T01:27:11.948Z,31.57
2019-05-17T01:31:17.260Z,30.97
2019-05-17T01:35:21.580Z,31.47
2019-05-17T01:39:26.889Z,28.10
2019-05-17T01:43:31.199Z,33.47
2019-05-17T01:47:36.779Z,28.97
2019-05-17T01:51:41.256Z,30.10
2019-05-17T01:55:46.616Z,29.57
2019-05-17T01:59:50.883Z,33.17
2019-05-17T02:03:57.362Z,31.33
2019-05-17T02:08:01.136Z,29.00
2019-05-17T02:12:06.705Z,33.03
2019-05-17T02:16:48.241Z,30.93
2019-05-17T02:20:52.758Z,28.60
2019-05-17T02:25:16.918Z,32.33
2019-05-17T02:29:21.480Z,32.00
2019-05-17T02:33:26.101Z,34.23
2019-05-17T02:37:33.178Z,39.67
2019-05-17T02:41:36.212Z,33.07
2019-05-17T02:45:43.302Z,30.90
2019-05-17T02:49:46.548Z,35.00
2019-05-17T02:53:52.680Z,35.60
2019-05-17T02:57:56.733Z,32.97
2019-05-17T03:02:03.396Z,35.57
2019-05-17T03:06:06.807Z,34.53
2019-05-17T03:10:22.059Z,35.57
2019-05-17T03:14:17.122Z,35.30
2019-05-17T03:18:22.907Z,34.47
2019-05-17T03:22:27.361Z,40.73
2019-05-17T03:26:32.802Z,33.90
2019-05-17T03:30:46.031Z,37.37
2019-05-17T03:34:47.975Z,37.67
2019-05-17T03:38:53.448Z,35.63
2019-05-17T03:42:57.845Z,38.37
2019-05-17T03:47:02.514Z,40.13
2019-05-17T03:51:06.886Z,37.43
2019-05-17T03:55:13.182Z,37.77
2019-05-17T03:59:17.101Z,35.90
2019-05-17T04:03:22.896Z,38.10
2019-05-17T04:07:27.185Z,37.37
2019-05-17T04:11:36.026Z,39.90
2019-05-17T04:15:37.375Z,40.93
2019-05-17T04:19:42.578Z,40.50
2019-05-17T04:23:46.928Z,45.70
2019-05-17T04:27:53.622Z,42.67
2019-05-17T04:31:57.162Z,40.03
2019-05-17T04:36:02.654Z,39.93
2019-05-17T04:40:07.211Z,42.50
2019-05-17T04:44:12.844Z,41.13
2019-05-17T04:48:17.880Z,40.93
2019-05-17T04:52:22.766Z,38.37
2019-05-17T04:56:34.227Z,38.80
2019-05-17T05:00:39.224Z,39.00
2019-05-17T05:04:44.064Z,41.07
2019-05-17T05:08:48.236Z,39.00
2019-05-17T05:12:52.780Z,36.13
2019-05-17T05:16:56.938Z,38.53
2019-05-17T05:21:03.675Z,40.67
2019-05-17T05:25:07.141Z,45.00
2019-05-17T05:29:12.802Z,41.73
2019-05-17T05:33:17.280Z,36.57
2019-05-17T05:37:23.211Z,38.30
2019-05-17T05:41:28.089Z,42.43
2019-05-17T05:45:32.385Z,39.77
2019-05-17T05:49:36.618Z,38.23
2019-05-17T05:53:41.906Z,32.57
2019-05-17T05:57:46.347Z,33.10
2019-05-17T06:01:52.506Z,35.63
2019-05-17T06:05:56.467Z,31.50
2019-05-17T06:10:02.265Z,29.90
2019-05-17T06:14:06.515Z,25.00
2019-05-17T06:18:12.230Z,27.00
2019-05-17T06:22:16.644Z,21.97
2019-05-17T06:26:23.485Z,24.43
2019-05-17T06:30:26.738Z,22.63
2019-05-17T06:34:32.801Z,22.97
2019-05-17T06:38:36.856Z,21.00
2019-05-17T06:42:44.764Z,17.23
2019-05-17T06:46:47.087Z,15.60
2019-05-17T06:50:51.933Z,14.20
2019-05-17T06:54:56.392Z,12.97
2019-05-17T06:59:00.609Z,14.67
2019-05-17T07:03:04.862Z,15.73
2019-05-17T07:07:30.130Z,13.20
2019-05-17T07:11:33.546Z,12.80
2019-05-17T07:15:46.856Z,12.27
2019-05-17T07:19:44.282Z,12.53
2019-05-17T07:23:49.882Z,12.93
2019-05-17T07:27:54.304Z,13.10
2019-05-17T07:32:00.362Z,13.40
2019-05-17T07:36:04.390Z,10.63
2019-05-17T07:40:10.774Z,11.40
2019-05-17T07:44:15.322Z,12.33
2019-05-17T07:48:19.991Z,13.97
2019-05-17T07:52:24.566Z,12.27
2019-05-17T07:56:30.542Z,12.23
2019-05-17T08:00:34.954Z,12.43
2019-05-17T08:04:40.678Z,11.20
2019-05-17T08:08:45.199Z,11.53
2019-05-17T08:12:49.867Z,12.13
2019-05-17T08:16:54.208Z,9.50
2019-05-17T08:20:59.687Z,9.60
2019-05-17T08:25:04.040Z,9.97
2019-05-17T08:29:09.970Z,11.83
2019-05-17T08:33:14.099Z,9.33
2019-05-17T08:37:20.479Z,10.80
2019-05-17T08:41:24.381Z,9.97
2019-05-17T08:45:29.594Z,10.07
2019-05-17T08:49:33.927Z,8.50
2019-05-17T08:53:39.871Z,9.63
2019-05-17T08:57:43.998Z,8.83
2019-05-17T09:01:50.135Z,8.57
2019-05-17T09:05:54.075Z,9.77
2019-05-17T09:09:58.268Z,9.77
2019-05-17T09:14:02.496Z,8.30
2019-05-17T09:18:06.707Z,9.70
2019-05-17T09:22:11.006Z,9.67
2019-05-17T09:26:15.226Z,10.00
2019-05-17T09:30:20.370Z,9.70
2019-05-17T09:34:24.848Z,10.23
2019-05-17T09:38:29.502Z,10.67
2019-05-17T09:42:33.996Z,10.13
2019-05-17T09:46:39.591Z,10.20
2019-05-17T09:50:43.821Z,8.87
2019-05-17T09:54:50.190Z,10.60
2019-05-17T09:58:53.975Z,9.97
2019-05-17T10:03:00.062Z,10.40
2019-05-17T10:07:04.167Z,10.83
2019-05-17T10:11:11.278Z,11.10
2019-05-17T10:15:14.344Z,10.67
2019-05-17T10:19:21.881Z,11.30
2019-05-17T10:23:24.435Z,10.90
2019-05-17T10:27:30.224Z,11.50
2019-05-17T10:31:34.562Z,11.47
2019-05-17T10:35:40.646Z,12.37
2019-05-17T10:39:44.659Z,15.40
2019-05-17T10:43:50.081Z,12.17
2019-05-17T10:47:54.428Z,11.33
2019-05-17T10:51:59.917Z,11.27
2019-05-17T10:56:04.272Z,9.77
2019-05-17T11:00:10.254Z,12.67
2019-05-17T11:04:14.606Z,8.73
2019-05-17T11:08:19.761Z,9.67
2019-05-17T11:12:24.240Z,9.30
2019-05-17T11:16:28.446Z,9.30
2019-05-17T11:20:32.687Z,10.90
2019-05-17T11:24:36.903Z,12.10
2019-05-17T11:28:41.120Z,12.90
2019-05-17T11:32:45.359Z,14.10
2019-05-17T11:36:49.587Z,14.47
2019-05-17T11:40:53.806Z,15.87
2019-05-17T11:44:58.056Z,15.10
2019-05-17T11:49:02.301Z,11.90
2019-05-17T11:53:06.521Z,11.13
2019-05-17T11:57:12.395Z,13.80
2019-05-17T12:01:16.867Z,13.07
2019-05-17T12:05:21.156Z,13.50
2019-05-17T12:09:36.900Z,17.17
2019-05-17T12:13:31.251Z,14.60
2019-05-17T12:17:35.448Z,13.67
2019-05-17T12:21:39.720Z,16.60
2019-05-17T12:25:44.586Z,15.60
2019-05-17T12:29:49.068Z,14.53
2019-05-17T12:33:53.311Z,13.37
2019-05-17T12:37:57.516Z,20.53
2019-05-17T12:42:01.925Z,13.30
2019-05-17T12:46:06.341Z,15.87
2019-05-17T12:50:11.283Z,13.77
2019-05-17T12:54:16.127Z,14.37
2019-05-17T12:58:20.473Z,16.07
2019-05-17T13:02:24.737Z,14.13
2019-05-17T13:06:28.950Z,12.33
2019-05-17T13:10:33.284Z,13.23
2019-05-17T13:14:37.502Z,11.63
2019-05-17T13:18:41.805Z,14.00
2019-05-17T13:22:46.049Z,28.77
2019-05-17T13:26:50.284Z,32.73
2019-05-17T13:30:54.541Z,18.97
2019-05-17T13:34:58.735Z,15.77
2019-05-17T13:39:03.636Z,13.73
2019-05-17T13:43:07.854Z,13.20
2019-05-17T13:47:12.121Z,12.87
2019-05-17T13:51:16.347Z,11.17
2019-05-17T13:55:20.640Z,12.63
2019-05-17T13:59:24.861Z,64.03
2019-05-17T14:03:29.142Z,13.30
2019-05-17T14:07:33.344Z,12.77
2019-05-17T14:11:37.571Z,14.60
2019-05-17T14:15:41.792Z,11.67
2019-05-17T14:19:45.979Z,13.40
2019-05-17T14:23:50.195Z,12.77
2019-05-17T14:27:54.428Z,12.77
2019-05-17T14:31:58.642Z,11.87
2019-05-17T14:36:02.877Z,12.40
2019-05-17T14:40:08.129Z,9.93
2019-05-17T14:44:12.352Z,9.57
2019-05-17T14:48:16.563Z,10.97
2019-05-17T14:52:21.556Z,10.90
2019-05-17T14:56:25.783Z,11.17
2019-05-17T15:00:29.975Z,10.73
2019-05-17T15:04:34.211Z,11.90
2019-05-17T15:08:38.419Z,17.13
2019-05-17T15:12:42.633Z,13.33
2019-05-17T15:16:46.864Z,20.07
2019-05-17T15:20:51.070Z,22.33
2019-05-17T15:24:55.770Z,13.17
2019-05-17T15:29:00.081Z,11.80
2019-05-17T15:33:04.278Z,12.80
2019-05-17T15:37:08.721Z,12.30
2019-05-17T15:41:13.002Z,15.00
2019-05-17T15:45:17.223Z,11.73
2019-05-17T15:49:21.439Z,11.80
2019-05-17T15:53:25.652Z,13.63
2019-05-17T15:57:29.876Z,13.23
2019-05-17T16:01:34.098Z,12.53
2019-05-17T16:05:38.320Z,13.50
2019-05-17T16:09:42.546Z,12.97
2019-05-17T16:13:46.768Z,14.70
2019-05-17T16:17:50.978Z,16.73
2019-05-17T16:21:55.206Z,13.50
2019-05-17T16:25:59.453Z,12.47
2019-05-17T16:30:04.169Z,12.57
2019-05-17T16:34:08.384Z,11.70
2019-05-17T16:38:12.612Z,13.50
2019-05-17T16:42:16.861Z,12.93
2019-05-17T16:46:21.076Z,14.27
2019-05-17T16:50:25.295Z,13.73
2019-05-17T16:54:29.508Z,14.07
2019-05-17T16:58:34.019Z,14.73
2019-05-17T17:02:38.296Z,14.60
2019-05-17T17:06:42.699Z,14.50
2019-05-17T17:10:46.926Z,13.27
2019-05-17T17:14:51.143Z,13.30
2019-05-17T17:18:55.372Z,11.87
2019-05-17T17:22:59.588Z,11.63
2019-05-17T17:27:04.689Z,12.53
2019-05-17T17:31:12.972Z,11.70
2019-05-17T17:35:17.694Z,12.40
2019-05-17T17:39:22.729Z,12.23
2019-05-17T17:43:26.915Z,12.13
2019-05-17T17:47:31.180Z,12.77
2019-05-17T17:51:35.434Z,11.70
2019-05-17T17:55:39.640Z,12.57
2019-05-17T17:59:44.172Z,12.30
2019-05-17T18:03:48.449Z,11.97
2019-05-17T18:07:53.114Z,11.70
2019-05-17T18:11:57.327Z,12.87
2019-05-17T18:16:01.699Z,12.20
2019-05-17T18:20:06.022Z,11.53
2019-05-17T18:24:10.251Z,12.90
2019-05-17T18:28:14.446Z,11.93
2019-05-17T18:32:18.667Z,11.73
2019-05-17T18:36:22.901Z,11.80
2019-05-17T18:40:27.131Z,10.70
2019-05-17T18:44:31.455Z,10.17
2019-05-17T18:48:35.656Z,11.03
2019-05-17T18:52:39.903Z,10.60
2019-05-17T18:56:44.121Z,11.40
2019-05-17T19:00:48.393Z,12.07
2019-05-17T19:04:52.617Z,11.07
2019-05-17T19:08:56.891Z,12.50
2019-05-17T19:13:01.111Z,13.07
2019-05-17T19:17:05.400Z,12.83
2019-05-17T19:21:09.639Z,11.83
2019-05-17T19:25:13.960Z,13.00
2019-05-17T19:29:18.164Z,11.77
2019-05-17T19:33:22.369Z,13.10
2019-05-17T19:37:26.607Z,13.57
2019-05-17T19:41:30.834Z,11.93
2019-05-17T19:45:35.079Z,13.40
2019-05-17T19:49:39.432Z,12.27
2019-05-17T19:53:43.806Z,11.70
2019-05-17T19:57:48.016Z,13.90
2019-05-17T20:01:52.343Z,12.27
2019-05-17T20:05:56.564Z,13.47
2019-05-17T20:10:00.854Z,13.63
2019-05-17T20:14:05.213Z,13.20
2019-05-17T20:18:09.791Z,13.37
2019-05-17T20:22:14.076Z,13.83
2019-05-17T20:26:18.340Z,14.60
2019-05-17T20:30:22.644Z,14.63
2019-05-17T20:34:29.088Z,17.37
2019-05-17T20:38:32.955Z,16.53
2019-05-17T20:42:37.252Z,15.13
2019-05-17T20:46:41.509Z,14.97
2019-05-17T20:50:45.699Z,15.53
2019-05-17T20:54:50.001Z,13.77
2019-05-17T20:58:54.236Z,14.80
2019-05-17T21:02:58.571Z,13.73
2019-05-17T21:07:02.833Z,14.40
2019-05-17T21:11:07.191Z,15.20
2019-05-17T21:15:11.528Z,14.63
2019-05-17T21:19:15.746Z,15.20
2019-05-17T21:23:19.978Z,16.87
2019-05-17T21:27:24.262Z,16.20
2019-05-17T21:31:28.570Z,16.60
2019-05-17T21:35:32.798Z,16.13
2019-05-17T21:39:37.016Z,17.30
2019-05-17T21:43:41.268Z,17.87
2019-05-17T21:47:45.569Z,17.83
2019-05-17T21:51:50.067Z,19.10
2019-05-17T21:55:54.531Z,20.20
2019-05-17T21:59:58.775Z,18.50
2019-05-17T22:04:03.249Z,17.87
2019-05-17T22:08:07.550Z,17.63
2019-05-17T22:12:13.432Z,18.47
2019-05-17T22:16:19.890Z,16.40
2019-05-17T22:20:23.535Z,17.50
2019-05-17T22:24:27.770Z,16.83
2019-05-17T22:28:31.983Z,18.20
2019-05-17T22:32:36.180Z,18.20
2019-05-17T22:36:40.467Z,18.40
2019-05-17T22:40:44.679Z,18.97
2019-05-17T22:44:49.364Z,19.57
2019-05-17T22:48:53.578Z,19.57
2019-05-17T22:52:57.976Z,22.00
2019-05-17T22:57:02.167Z,25.73
2019-05-17T23:01:06.388Z,24.30
2019-05-17T23:05:10.787Z,25.27
2019-05-17T23:09:14.994Z,24.00
2019-05-17T23:13:19.219Z,26.40
2019-05-17T23:17:23.334Z,29.07
2019-05-17T23:21:27.560Z,30.37
2019-05-17T23:25:31.779Z,32.07
2019-05-17T23:29:36.080Z,29.57
2019-05-17T23:33:40.291Z,31.77
2019-05-17T23:37:44.484Z,33.83
2019-05-17T23:41:48.752Z,34.53
2019-05-17T23:45:52.988Z,34.57
2019-05-17T23:49:57.212Z,36.57
2019-05-17T23:54:01.420Z,34.23
2019-05-17T23:58:08.476Z,36.47
